Time;durP1;ratioP1;P1;durP2;ratioP2;P2;SDS_P1;SDS_P2;PMS_P1;PMS_P2;Temp;Humidity;BMP_temperature;BMP_pressure;BME280_temperature;BME280_humidity;BME280_pressure;Samples;Min_cycle;Max_cycle;Signal;HPM_P1;HPM_P2
2021/04/12 00:00:36;;;;;;;20.85;13.00;;;;;;;6.05;68.50;97189.24;1847277;77;25701;-78
2021/04/12 00:03:11;;;;;;;21.80;14.15;;;;;;;5.99;68.48;97190.01;1852664;77;25767;-78
2021/04/12 00:06:01;;;;;;;19.35;13.88;;;;;;;5.95;68.54;97191.90;1852669;77;25705;-78
2021/04/12 00:09:13;;;;;;;21.85;13.58;;;;;;;5.89;68.63;97193.50;1852667;77;26673;-78
2021/04/12 00:11:55;;;;;;;23.20;13.40;;;;;;;5.84;68.76;97183.80;1852696;77;28367;-78
2021/04/12 00:14:31;;;;;;;20.73;13.67;;;;;;;5.79;68.87;97187.58;1852189;76;25797;-78
2021/04/12 00:17:28;;;;;;;23.50;13.95;;;;;;;5.74;68.93;97182.77;1819880;77;25686;-78
2021/04/12 00:20:03;;;;;;;25.85;14.50;;;;;;;5.74;68.97;97179.25;1852624;77;26083;-78
2021/04/12 00:22:45;;;;;;;26.00;13.85;;;;;;;5.70;68.89;97172.59;1849295;77;25775;-78
2021/04/12 00:25:41;;;;;;;24.32;14.13;;;;;;;5.65;68.85;97172.34;1846287;77;27685;-78
2021/04/12 00:28:14;;;;;;;26.27;12.88;;;;;;;5.60;68.93;97169.38;1847624;77;25652;-78
2021/04/12 00:30:50;;;;;;;24.02;14.15;;;;;;;5.44;69.06;97173.90;1776598;80;25855;-78
2021/04/12 00:33:25;;;;;;;24.00;13.32;;;;;;;5.34;69.18;97169.33;1776564;80;26384;-78
2021/04/12 00:36:04;;;;;;;24.85;13.38;;;;;;;5.30;69.33;97166.73;1776320;80;25785;-78
2021/04/12 00:38:57;;;;;;;26.45;13.40;;;;;;;5.25;69.29;97166.43;1776192;80;27731;-78
2021/04/12 00:42:20;;;;;;;24.37;15.08;;;;;;;5.18;69.21;97168.19;1776100;80;26522;-79
2021/04/12 00:45:29;;;;;;;21.15;14.33;;;;;;;5.07;69.56;97164.63;1776062;80;25915;-78
2021/04/12 00:48:34;;;;;;;18.90;12.80;;;;;;;5.13;69.80;97165.22;1775907;80;25802;-79
2021/04/12 00:51:43;;;;;;;22.75;13.72;;;;;;;5.14;69.84;97164.72;1776123;80;25736;-77
2021/04/12 00:54:40;;;;;;;22.82;13.48;;;;;;;5.12;69.92;97160.88;1776273;80;27714;-78
2021/04/12 00:57:27;;;;;;;22.00;13.90;;;;;;;5.15;70.07;97155.17;1776211;80;25789;-78
2021/04/12 01:03:32;;;;;;;32.80;19.17;;;;;;;5.24;70.33;97151.89;1873508;76;25599;-79
2021/04/12 01:06:11;;;;;;;34.08;20.15;;;;;;;5.20;70.34;97148.74;1826759;77;25692;-79
2021/04/12 01:08:59;;;;;;;35.05;20.23;;;;;;;5.24;70.36;97143.36;1852846;77;28565;-79
2021/04/12 01:11:53;;;;;;;30.52;19.32;;;;;;;5.29;70.31;97140.97;1848102;77;25868;-79
2021/04/12 01:14:45;;;;;;;28.98;17.10;;;;;;;5.33;70.35;97143.58;1852754;77;25751;-79
2021/04/12 01:17:50;;;;;;;28.92;18.20;;;;;;;5.38;70.36;97139.02;1852945;77;25762;-80
2021/04/12 01:20:50;;;;;;;29.98;18.67;;;;;;;5.37;70.34;97139.53;1852730;77;25903;-79
2021/04/12 01:23:46;;;;;;;31.97;19.48;;;;;;;5.35;70.41;97139.39;1852836;77;27488;-79
2021/04/12 01:27:02;;;;;;;35.10;19.25;;;;;;;5.34;70.46;97135.87;1852665;77;25745;-79
2021/04/12 01:30:08;;;;;;;35.80;18.77;;;;;;;5.34;70.48;97137.72;1852693;77;25719;-79
2021/04/12 01:33:23;;;;;;;34.35;17.82;;;;;;;5.37;70.55;97132.01;1852761;77;25768;-79
2021/04/12 01:36:34;;;;;;;35.52;17.48;;;;;;;5.38;70.67;97133.16;1786203;80;25899;-80
2021/04/12 01:39:47;;;;;;;34.53;19.82;;;;;;;5.30;70.67;97129.77;1841492;77;28431;-79
2021/04/12 01:42:29;;;;;;;37.30;20.60;;;;;;;5.31;70.74;97140.25;1824626;78;25734;-79
2021/04/12 01:45:17;;;;;;;34.85;17.82;;;;;;;5.35;70.74;97141.55;1824773;78;25767;-79
2021/04/12 01:48:23;;;;;;;33.67;18.12;;;;;;;5.38;70.78;97139.02;1824733;78;25591;-79
2021/04/12 01:51:23;;;;;;;29.55;16.00;;;;;;;5.37;70.66;97132.84;1824762;77;25838;-79
2021/04/12 01:54:23;;;;;;;27.55;16.57;;;;;;;5.32;70.58;97135.23;1824670;78;28836;-79
2021/04/12 01:57:41;;;;;;;25.55;15.98;;;;;;;5.29;70.55;97134.79;1824311;78;25733;-79
2021/04/12 02:00:33;;;;;;;26.40;16.70;;;;;;;5.28;70.49;97133.13;1824687;77;25710;-79
2021/04/12 02:03:28;;;;;;;28.20;16.85;;;;;;;5.24;70.65;97121.95;1822864;77;25712;-79
2021/04/12 02:06:35;;;;;;;27.98;15.45;;;;;;;5.18;70.70;97128.05;1822741;78;25667;-79
2021/04/12 02:09:44;;;;;;;28.95;16.40;;;;;;;5.20;70.75;97135.87;1726249;82;27503;-79
2021/04/12 02:12:34;;;;;;;30.27;16.65;;;;;;;5.14;70.63;97134.78;1679120;84;25856;-79
2021/04/12 02:15:35;;;;;;;27.32;16.27;;;;;;;5.14;70.65;97135.28;1678789;84;25846;-79
2021/04/12 02:18:23;;;;;;;35.33;18.50;;;;;;;5.12;70.62;97142.16;1678735;84;26070;-79
2021/04/12 02:21:25;;;;;;;31.27;15.53;;;;;;;5.07;70.62;97131.98;1678835;84;25922;-79
2021/04/12 02:24:25;;;;;;;27.82;16.60;;;;;;;5.09;70.61;97129.13;1678973;84;27552;-79
2021/04/12 02:27:25;;;;;;;25.80;17.42;;;;;;;5.07;70.54;97129.31;1678774;85;26291;-80
2021/04/12 02:30:00;;;;;;;30.92;17.57;;;;;;;5.01;70.50;97135.92;1678771;85;25752;-79
2021/04/12 02:33:06;;;;;;;30.68;17.90;;;;;;;4.84;70.60;97128.55;1678867;84;25806;-79
2021/04/12 02:38:59;;;;;;;30.63;18.53;;;;;;;4.73;71.03;97120.14;1833752;76;32268;-77
2021/04/12 02:42:00;;;;;;;29.00;16.87;;;;;;;4.80;70.42;97121.93;1819283;78;25709;-80
2021/04/12 02:45:13;;;;;;;26.02;16.42;;;;;;;4.83;70.77;97124.75;1820164;78;27278;-80
2021/04/12 02:47:58;;;;;;;25.05;14.25;;;;;;;4.74;70.82;97117.80;1752664;81;25744;-80
2021/04/12 02:51:03;;;;;;;30.40;19.27;;;;;;;4.57;70.99;97127.33;1719323;83;25719;-80
2021/04/12 02:54:00;;;;;;;35.33;18.77;;;;;;;4.55;71.26;97116.48;1750270;80;25782;-80
2021/04/12 02:56:48;;;;;;;29.67;18.92;;;;;;;4.52;71.11;97112.82;1754510;81;25711;-79
2021/04/12 03:00:02;;;;;;;24.55;15.88;;;;;;;4.52;71.20;97123.02;1743705;81;27509;-80
2021/04/12 03:02:59;;;;;;;28.00;15.48;;;;;;;4.51;71.16;97125.36;1754738;80;26646;-80
2021/04/12 03:05:49;;;;;;;24.67;14.33;;;;;;;4.48;71.07;97119.53;1754816;81;26264;-80
2021/04/12 03:08:45;;;;;;;23.12;14.25;;;;;;;4.46;71.13;97119.73;1754631;81;26344;-80
2021/04/12 03:11:46;;;;;;;24.15;14.03;;;;;;;4.45;71.16;97117.24;1754110;81;25725;-80
2021/04/12 03:14:56;;;;;;;21.33;12.75;;;;;;;4.44;71.15;97110.23;1754632;81;27720;-80
2021/04/12 03:17:44;;;;;;;23.87;14.58;;;;;;;4.42;71.10;97114.41;1754575;81;25698;-80
2021/04/12 03:20:43;;;;;;;27.98;15.10;;;;;;;4.43;71.06;97121.42;1754635;81;25828;-80
2021/04/12 03:23:50;;;;;;;28.62;15.70;;;;;;;4.44;71.08;97123.59;1754692;81;26245;-80
2021/04/12 03:26:37;;;;;;;25.25;14.80;;;;;;;4.39;71.03;97116.61;1754757;81;25853;-80
2021/04/12 03:29:34;;;;;;;26.00;14.43;;;;;;;4.40;71.15;97115.09;1754462;81;27589;-80
2021/04/12 03:32:39;;;;;;;26.50;14.87;;;;;;;4.31;71.07;97122.86;1754221;81;25729;-80
2021/04/12 03:35:38;;;;;;;20.92;13.53;;;;;;;4.22;71.22;97118.59;1754715;81;25696;-80
2021/04/12 03:38:34;;;;;;;21.87;14.20;;;;;;;4.16;71.23;97115.28;1754384;81;25746;-80
2021/04/12 03:41:30;;;;;;;22.35;13.48;;;;;;;4.13;71.28;97120.97;1680830;85;25698;-80
2021/04/12 03:44:22;;;;;;;23.90;13.55;;;;;;;4.05;71.22;97113.03;1753118;81;27290;-80
2021/04/12 03:47:04;;;;;;;25.20;14.18;;;;;;;4.02;71.29;97118.72;1754634;81;25774;-80
2021/04/12 03:53:14;;;;;;;23.52;14.43;;;;;;;3.91;71.45;97106.11;1873487;76;35320;-79
2021/04/12 03:56:02;;;;;;;27.37;15.48;;;;;;;3.89;71.44;97104.61;1852835;77;25725;-79
2021/04/12 03:59:10;;;;;;;30.60;17.98;;;;;;;3.84;71.42;97111.84;1852847;77;27481;-79
2021/04/12 04:01:58;;;;;;;36.25;18.30;;;;;;;3.84;71.51;97109.17;1849644;77;25705;-79
2021/04/12 04:04:49;;;;;;;27.00;16.87;;;;;;;3.82;71.45;97113.02;1851712;77;25733;-79
2021/04/12 04:07:38;;;;;;;31.97;17.45;;;;;;;3.79;71.46;97109.36;1852547;77;25752;-79
2021/04/12 04:10:34;;;;;;;31.93;16.52;;;;;;;3.78;71.44;97117.87;1851140;77;25893;-79
2021/04/12 04:13:22;;;;;;;31.85;17.50;;;;;;;3.69;71.40;97113.59;1852785;77;28513;-79
2021/04/12 04:16:29;;;;;;;23.42;13.55;;;;;;;3.65;71.49;97118.11;1852648;77;25680;-79
2021/04/12 04:19:23;;;;;;;27.45;13.72;;;;;;;3.61;71.49;97107.80;1852588;77;25785;-80
2021/04/12 04:22:19;;;;;;;22.55;13.43;;;;;;;3.60;71.61;97118.65;1851089;77;25850;-79
2021/04/12 04:25:20;;;;;;;22.50;11.65;;;;;;;3.62;71.79;97129.45;1852731;77;25681;-79
2021/04/12 04:27:59;;;;;;;22.10;13.08;;;;;;;3.62;71.87;97123.31;1852679;77;27488;-79
2021/04/12 04:30:59;;;;;;;29.05;15.53;;;;;;;3.65;71.95;97128.78;1852503;77;26075;-80
2021/04/12 04:34:07;;;;;;;23.75;14.33;;;;;;;3.65;71.93;97124.28;1852601;77;25719;-79
2021/04/12 04:36:57;;;;;;;30.02;17.42;;;;;;;3.63;71.93;97127.12;1852674;77;25749;-79
2021/04/12 04:40:22;;;;;;;32.73;18.57;;;;;;;3.58;72.04;97128.16;1852735;77;25748;-79
2021/04/12 04:43:16;;;;;;;28.07;15.95;;;;;;;3.63;72.17;97129.78;1852650;77;27487;-79
2021/04/12 04:46:20;;;;;;;27.55;14.80;;;;;;;3.72;72.16;97128.43;1852421;77;26227;-79
2021/04/12 04:49:19;;;;;;;30.20;17.17;;;;;;;3.73;72.08;97137.60;1852626;77;25711;-79
2021/04/12 04:52:06;;;;;;;32.53;16.73;;;;;;;3.75;72.11;97142.73;1852679;77;26142;-79
2021/04/12 04:55:02;;;;;;;35.30;18.67;;;;;;;3.75;72.22;97144.91;1820048;77;25828;-79
2021/04/12 04:57:55;;;;;;;35.88;17.65;;;;;;;3.78;72.31;97139.23;1802173;78;27494;-79
2021/04/12 05:00:55;;;;;;;33.65;19.00;;;;;;;3.81;72.30;97142.89;1845223;77;25989;-79
2021/04/12 05:03:47;;;;;;;56.58;27.50;;;;;;;3.87;72.32;97144.84;1852181;77;25800;-80
2021/04/12 05:06:55;;;;;;;109.83;50.20;;;;;;;3.92;72.40;97141.16;1852097;77;25732;-80
2021/04/12 05:09:52;;;;;;;83.45;39.53;;;;;;;3.98;72.48;97129.75;1852177;77;25755;-79
2021/04/12 05:12:37;;;;;;;42.53;20.37;;;;;;;4.07;72.54;97129.72;1852004;77;27554;-79
2021/04/12 05:15:21;;;;;;;37.33;21.87;;;;;;;4.12;72.53;97135.34;1850992;77;26048;-80
2021/04/12 05:18:06;;;;;;;44.90;21.82;;;;;;;4.18;72.59;97130.13;1848455;77;26286;-80
2021/04/12 05:21:02;;;;;;;42.08;20.32;;;;;;;4.25;72.67;97124.89;1851135;77;25639;-80
2021/04/12 05:24:06;;;;;;;35.23;19.02;;;;;;;4.31;72.70;97120.19;1852054;77;25792;-79
2021/04/12 05:26:55;;;;;;;37.23;20.92;;;;;;;4.40;72.75;97123.11;1852071;77;27493;-80
2021/04/12 05:29:50;;;;;;;39.92;21.10;;;;;;;4.50;72.90;97122.35;1851963;77;25733;-80
2021/04/12 05:32:42;;;;;;;31.37;17.48;;;;;;;4.57;72.83;97130.00;1851970;77;25749;-80
2021/04/12 05:35:48;;;;;;;30.30;17.50;;;;;;;4.65;72.71;97133.09;1852133;77;25645;-79
2021/04/12 05:38:49;;;;;;;32.67;17.57;;;;;;;4.73;72.67;97133.52;1851953;77;25810;-79
2021/04/12 05:41:30;;;;;;;36.80;19.27;;;;;;;4.82;72.64;97116.41;1851118;77;27349;-80
2021/04/12 05:44:32;;;;;;;31.30;18.37;;;;;;;4.94;72.79;97115.77;1851364;77;25789;-79
2021/04/12 05:50:20;;;;;;;28.10;17.53;;;;;;;5.19;72.77;97119.02;1850053;76;35018;-77
2021/04/12 05:53:10;;;;;;;30.65;16.20;;;;;;;5.31;72.12;97124.20;1821523;78;25651;-78
2021/04/12 05:56:01;;;;;;;24.47;14.68;;;;;;;5.43;72.33;97118.70;1822400;78;27753;-80
2021/04/12 05:58:54;;;;;;;27.35;13.70;;;;;;;5.56;72.42;97119.89;1822408;78;26121;-78
2021/04/12 06:01:53;;;;;;;22.10;11.57;;;;;;;5.67;72.47;97116.76;1822436;77;25756;-78
2021/04/12 06:04:44;;;;;;;23.38;12.33;;;;;;;5.79;72.43;97111.23;1822501;78;25773;-79
2021/04/12 06:07:42;;;;;;;20.68;11.80;;;;;;;5.90;72.41;97116.13;1822550;78;25852;-78
2021/04/12 06:10:44;;;;;;;18.80;10.38;;;;;;;6.03;72.22;97125.66;1822405;78;26947;-78
2021/04/12 06:13:47;;;;;;;19.12;10.93;;;;;;;6.18;72.17;97123.41;1822317;78;25772;-79
2021/04/12 06:16:56;;;;;;;19.02;10.60;;;;;;;6.32;72.28;97119.84;1822322;78;25636;-78
2021/04/12 06:20:03;;;;;;;16.82;9.43;;;;;;;6.47;72.29;97116.59;1822439;78;26135;-78
2021/04/12 06:22:57;;;;;;;16.65;9.15;;;;;;;6.64;72.00;97120.65;1822405;78;25796;-79
2021/04/12 06:25:51;;;;;;;20.52;12.00;;;;;;;6.78;71.79;97117.05;1822415;78;27897;-78
2021/04/12 06:28:56;;;;;;;23.02;13.80;;;;;;;6.93;71.75;97122.84;1822150;78;26129;-78
2021/04/12 06:32:02;;;;;;;22.05;12.68;;;;;;;7.06;71.74;97113.55;1822402;78;25635;-78
2021/04/12 06:35:26;;;;;;;17.92;11.18;;;;;;;7.25;71.41;97119.55;1822391;78;25643;-80
2021/04/12 06:38:34;;;;;;;17.27;9.45;;;;;;;7.40;71.29;97120.27;1822511;78;25685;-79
2021/04/12 06:41:44;;;;;;;20.20;9.53;;;;;;;7.57;71.00;97110.86;1822332;78;27511;-79
2021/04/12 06:44:43;;;;;;;14.07;8.05;;;;;;;7.77;70.74;97127.57;1822353;78;25713;-78
2021/04/12 06:47:31;;;;;;;14.20;7.55;;;;;;;7.93;70.47;97123.20;1822387;78;26382;-79
2021/04/12 06:50:54;;;;;;;14.95;8.88;;;;;;;8.14;70.34;97120.87;1821660;77;25837;-79
2021/04/12 06:54:00;;;;;;;18.65;9.25;;;;;;;8.29;70.17;97116.99;1822516;78;25821;-79
2021/04/12 06:57:08;;;;;;;15.80;9.15;;;;;;;8.52;69.78;97120.67;1822371;78;27484;-78
2021/04/12 06:59:50;;;;;;;15.30;8.03;;;;;;;8.72;69.54;97119.85;1822051;78;25696;-78
2021/04/12 07:02:29;;;;;;;11.93;6.55;;;;;;;8.89;69.00;97116.55;1820454;78;25802;-79
2021/04/12 07:05:41;;;;;;;11.95;7.05;;;;;;;9.09;68.64;97117.88;1821645;77;25683;-79
2021/04/12 07:08:32;;;;;;;12.50;6.95;;;;;;;9.27;68.50;97123.97;1821713;78;25741;-79
2021/04/12 07:11:55;;;;;;;13.80;7.20;;;;;;;9.47;68.22;97123.41;1821685;78;27561;-79
2021/04/12 07:15:10;;;;;;;13.85;7.85;;;;;;;9.69;67.87;97123.95;1821434;78;26040;-79
2021/04/12 07:18:22;;;;;;;12.18;6.42;;;;;;;9.95;67.74;97123.03;1821382;78;25806;-78
2021/04/12 07:21:27;;;;;;;14.25;6.22;;;;;;;10.20;67.23;97121.28;1821640;78;25790;-78
2021/04/12 07:24:32;;;;;;;7.33;4.78;;;;;;;10.42;66.78;97113.16;1821583;78;25778;-78
2021/04/12 07:27:47;;;;;;;6.25;3.60;;;;;;;10.64;66.25;97102.00;1821494;78;28432;-78
2021/04/12 07:30:51;;;;;;;6.58;4.60;;;;;;;10.86;65.21;97106.01;1821262;77;25931;-78
2021/04/12 07:33:42;;;;;;;11.38;4.60;;;;;;;11.16;64.81;97101.56;1821697;78;26028;-77
2021/04/12 07:36:44;;;;;;;13.35;4.50;;;;;;;11.48;64.48;97096.86;1821434;78;25610;-77
2021/04/12 07:39:31;;;;;;;8.93;4.35;;;;;;;11.80;64.07;97091.36;1821762;77;25721;-78
2021/04/12 07:42:41;;;;;;;10.00;5.10;;;;;;;12.32;63.87;97101.20;1820091;77;27470;-77
2021/04/12 07:45:42;;;;;;;9.38;4.80;;;;;;;12.84;63.10;97103.63;1821685;77;26262;-78
2021/04/12 07:48:59;;;;;;;5.00;3.77;;;;;;;13.41;62.16;97097.14;1821752;78;26275;-78
2021/04/12 07:51:57;;;;;;;6.40;3.50;;;;;;;13.97;61.67;97100.02;1819670;78;25397;-78
2021/04/12 07:55:04;;;;;;;7.25;3.75;;;;;;;14.57;60.60;97090.61;1821847;78;25690;-78
2021/04/12 07:58:27;;;;;;;6.95;3.87;;;;;;;15.05;59.28;97090.90;1821733;78;27480;-78
2021/04/12 08:01:18;;;;;;;9.08;3.90;;;;;;;15.61;59.13;97078.16;1821733;78;25698;-79
2021/04/12 08:04:19;;;;;;;5.05;4.03;;;;;;;16.21;58.21;97082.73;1821621;77;25709;-79
2021/04/12 08:07:11;;;;;;;9.43;4.25;;;;;;;16.71;57.08;97087.92;1821728;77;25785;-79
2021/04/12 08:10:26;;;;;;;10.43;4.40;;;;;;;17.15;56.35;97092.67;1818787;78;25821;-79
2021/04/12 08:16:21;;;;;;;5.05;3.08;;;;;;;18.25;52.95;97087.33;1849199;76;25608;-79
2021/04/12 08:19:02;;;;;;;6.62;2.85;;;;;;;18.38;53.16;97082.73;1818119;78;25741;-81
2021/04/12 08:22:08;;;;;;;5.78;2.90;;;;;;;18.74;52.74;97067.80;1820100;78;27487;-82
2021/04/12 08:25:02;;;;;;;6.70;3.20;;;;;;;19.08;51.66;97067.55;1819990;78;25834;-80
2021/04/12 08:27:54;;;;;;;4.55;3.02;;;;;;;19.45;50.75;97065.87;1819215;78;25865;-80
2021/04/12 08:31:05;;;;;;;5.90;2.65;;;;;;;19.59;50.10;97072.46;1800116;78;25704;-81
2021/04/12 08:34:15;;;;;;;5.17;2.67;;;;;;;19.80;49.37;97068.33;1819439;78;25811;-81
2021/04/12 08:37:26;;;;;;;5.17;2.85;;;;;;;19.95;48.34;97075.10;1820035;78;27487;-81
2021/04/12 08:40:16;;;;;;;7.58;3.15;;;;;;;20.02;47.49;97066.06;1820113;78;26236;-81
2021/04/12 08:43:17;;;;;;;5.25;2.60;;;;;;;20.34;47.11;97076.05;1820057;78;25717;-81
2021/04/12 08:46:24;;;;;;;4.70;2.58;;;;;;;20.60;46.25;97084.17;1820039;77;25690;-81
2021/04/12 08:49:14;;;;;;;5.03;2.55;;;;;;;20.74;45.66;97077.78;1820205;78;25714;-80
2021/04/12 08:52:25;;;;;;;5.85;2.90;;;;;;;20.43;43.88;97078.48;1820112;78;27481;-81
2021/04/12 08:55:36;;;;;;;5.12;3.00;;;;;;;20.37;43.97;97083.75;1819909;78;26051;-81
2021/04/12 08:58:38;;;;;;;3.37;2.30;;;;;;;20.49;43.91;97077.38;1775188;78;25754;-81
2021/04/12 09:02:02;;;;;;;3.95;2.00;;;;;;;20.98;43.66;97070.20;1820254;78;25714;-80
2021/04/12 09:05:25;;;;;;;2.87;1.98;;;;;;;21.23;43.19;97066.47;1820060;78;25803;-80
2021/04/12 09:08:38;;;;;;;3.40;2.37;;;;;;;21.36;42.53;97052.08;1819927;78;27479;-80
2021/04/12 09:11:38;;;;;;;6.28;2.22;;;;;;;21.40;42.27;97058.61;1820060;78;26173;-81
2021/04/12 09:14:38;;;;;;;2.17;1.80;;;;;;;21.21;41.85;97058.52;1820666;78;25799;-80
2021/04/12 09:17:20;;;;;;;4.08;2.37;;;;;;;21.03;41.33;97054.50;1824704;78;26132;-80
2021/04/12 09:19:59;;;;;;;4.20;2.37;;;;;;;20.86;40.95;97062.34;1825936;78;25848;-79
2021/04/12 09:23:11;;;;;;;2.77;1.82;;;;;;;20.87;41.11;97055.75;1826129;78;27410;-79
2021/04/12 09:26:09;;;;;;;3.87;2.08;;;;;;;21.07;40.53;97050.09;1805816;79;26123;-80
2021/04/12 09:29:14;;;;;;;5.30;2.30;;;;;;;21.49;40.78;97050.03;1805685;79;25727;-80
2021/04/12 09:31:50;;;;;;;4.25;2.15;;;;;;;21.71;40.21;97055.84;1825396;78;25709;-80
2021/04/12 09:34:57;;;;;;;3.08;2.17;;;;;;;21.53;39.48;97045.58;1824191;77;25712;-80
2021/04/12 09:37:44;;;;;;;6.42;2.10;;;;;;;21.19;39.41;97044.26;1825520;78;27475;-79
2021/04/12 09:40:33;;;;;;;3.12;1.98;;;;;;;20.98;39.56;97048.25;1825421;78;25640;-79
2021/04/12 09:43:35;;;;;;;2.15;1.90;;;;;;;20.87;39.31;97048.89;1804525;78;25860;-80
2021/04/12 09:46:43;;;;;;;3.72;2.12;;;;;;;20.57;39.44;97052.64;1825788;78;25633;-79
2021/04/12 09:49:48;;;;;;;3.75;2.10;;;;;;;20.47;39.36;97056.82;1825595;78;25732;-80
2021/04/12 09:52:41;;;;;;;4.05;2.08;;;;;;;20.29;39.45;97058.24;1825436;78;27489;-80
2021/04/12 09:55:48;;;;;;;4.87;2.17;;;;;;;20.09;39.51;97056.98;1795802;78;25718;-80
2021/04/12 09:58:45;;;;;;;3.90;1.92;;;;;;;19.82;39.28;97062.81;1825427;78;25734;-80
2021/04/12 10:01:42;;;;;;;5.62;2.20;;;;;;;19.70;39.54;97053.54;1823967;77;25310;-81
2021/04/12 10:04:49;;;;;;;5.12;2.52;;;;;;;19.70;39.60;97050.80;1825591;78;25675;-80
2021/04/12 10:07:41;;;;;;;7.65;2.85;;;;;;;19.62;39.44;97058.77;1809214;78;27562;-80
2021/04/12 10:10:29;;;;;;;3.25;2.52;;;;;;;19.49;39.47;97057.98;1823240;78;25959;-80
2021/04/12 10:13:13;;;;;;;5.75;2.55;;;;;;;19.39;39.42;97060.98;1824735;78;25724;-79
2021/04/12 10:15:52;;;;;;;5.60;2.65;;;;;;;19.24;39.05;97069.73;1825424;78;25756;-79
2021/04/12 10:18:40;;;;;;;7.67;3.02;;;;;;;19.17;39.35;97063.73;1825040;78;25714;-80
2021/04/12 10:21:18;;;;;;;4.83;2.55;;;;;;;19.23;39.45;97065.36;1825494;77;27875;-80
2021/04/12 10:23:54;;;;;;;4.78;2.58;;;;;;;19.30;39.22;97064.55;1825393;78;26059;-80
2021/04/12 10:26:28;;;;;;;4.87;2.30;;;;;;;19.37;39.25;97065.08;1825434;78;25749;-79
2021/04/12 10:29:13;;;;;;;2.45;2.10;;;;;;;19.51;39.47;97063.45;1825563;78;26144;-79
2021/04/12 10:31:56;;;;;;;5.92;2.27;;;;;;;19.65;39.38;97062.33;1803940;78;25733;-79
2021/04/12 10:34:34;;;;;;;2.98;2.12;;;;;;;19.71;39.03;97059.84;1825459;77;27561;-79
2021/04/12 10:37:06;;;;;;;3.37;2.10;;;;;;;19.70;38.93;97063.12;1825134;78;25662;-79
2021/04/12 10:39:41;;;;;;;2.92;2.02;;;;;;;19.49;39.33;97068.38;1825592;78;25757;-80
2021/04/12 10:42:43;;;;;;;5.28;2.33;;;;;;;19.50;39.24;97061.81;1825445;78;25739;-79
2021/04/12 10:45:16;;;;;;;4.73;2.80;;;;;;;19.48;39.20;97059.04;1809191;78;25897;-80
2021/04/12 10:47:58;;;;;;;4.85;2.40;;;;;;;19.48;39.36;97061.23;1825379;78;28251;-79
2021/04/12 10:50:49;;;;;;;3.85;2.58;;;;;;;19.52;39.24;97060.17;1825499;78;26015;-79
2021/04/12 10:53:44;;;;;;;6.17;2.12;;;;;;;19.54;39.16;97060.17;1802397;78;25753;-79
2021/04/12 10:56:28;;;;;;;3.52;1.92;;;;;;;19.52;39.00;97060.99;1824766;78;25763;-79
2021/04/12 10:59:38;;;;;;;3.40;2.33;;;;;;;19.52;39.14;97061.54;1825508;78;26290;-79
2021/04/12 11:03:01;;;;;;;4.35;1.95;;;;;;;19.49;39.13;97056.06;1825344;78;27475;-79
2021/04/12 11:05:31;;;;;;;4.00;2.22;;;;;;;19.42;39.03;97056.88;1825330;78;25718;-80
2021/04/12 11:08:27;;;;;;;6.60;2.52;;;;;;;19.17;39.42;97061.00;1825414;78;25709;-80
2021/04/12 11:11:12;;;;;;;3.08;2.22;;;;;;;18.88;39.97;97060.17;1825446;78;26344;-79
2021/04/12 11:13:56;;;;;;;5.10;2.33;;;;;;;18.88;40.12;97060.17;1825453;78;25614;-79
2021/04/12 11:16:43;;;;;;;2.83;2.25;;;;;;;18.75;40.28;97064.80;1822942;77;27479;-80
2021/04/12 11:19:36;;;;;;;3.70;2.37;;;;;;;18.68;40.56;97063.71;1822446;78;25635;-79
2021/04/12 11:22:12;;;;;;;;;;;;;;;18.65;40.79;97067.53;1824659;78;25828;-80
2021/04/12 11:24:54;;;;;;;3.52;2.60;;;;;;;18.64;41.05;97067.25;1822655;78;27048;-80
2021/04/12 11:28:04;;;;;;;7.62;3.87;;;;;;;18.72;40.88;97068.07;1822626;77;25808;-79
2021/04/12 11:30:40;;;;;;;5.65;2.17;;;;;;;18.79;40.65;97065.91;1822488;78;28469;-79
2021/04/12 11:33:31;;;;;;;3.77;2.37;;;;;;;18.86;40.67;97072.47;1821320;78;25670;-79
2021/04/12 11:36:22;;;;;;;3.05;1.90;;;;;;;18.83;40.65;97077.95;1822531;78;25787;-79
2021/04/12 11:39:10;;;;;;;2.58;2.02;;;;;;;18.78;40.47;97068.37;1822543;78;25797;-78
2021/04/12 11:41:46;;;;;;;4.78;1.95;;;;;;;18.72;40.47;97074.91;1821780;77;26527;-79
2021/04/12 11:47:22;;;;;;;4.20;2.10;;;;;;;18.72;40.26;97074.11;1873438;76;25636;-77
2021/04/12 11:50:30;;;;;;;4.28;2.50;;;;;;;18.52;40.47;97080.31;1852659;76;25640;-78
2021/04/12 11:53:08;;;;;;;4.30;2.60;;;;;;;18.17;40.73;97072.29;1852746;77;27536;-78
2021/04/12 11:58:50;;;;;;;7.85;2.87;;;;;;;17.96;41.53;97067.84;1873519;76;25581;-80
2021/04/12 12:01:40;;;;;;;;;;;;;;;17.77;41.81;97065.27;1855520;77;25821;-80
2021/04/12 12:04:38;;;;;;;7.22;3.40;;;;;;;17.59;42.10;97076.08;1852736;76;27445;-80
2021/04/12 12:07:37;;;;;;;6.62;3.50;;;;;;;17.57;42.16;97080.43;1852739;77;25930;-80
2021/04/12 12:10:48;;;;;;;6.00;3.70;;;;;;;17.45;42.38;97081.17;1852647;77;25727;-79
2021/04/12 12:13:42;;;;;;;6.80;3.60;;;;;;;17.35;42.70;97082.47;1852787;77;25696;-79
2021/04/12 12:16:33;;;;;;;6.35;3.30;;;;;;;17.23;42.80;97081.84;1821489;77;25798;-80
2021/04/12 12:19:21;;;;;;;6.65;3.60;;;;;;;16.96;43.39;97086.52;1852879;77;28651;-80
2021/04/12 12:22:11;;;;;;;6.65;4.10;;;;;;;16.82;43.63;97088.30;1852656;77;25717;-81
2021/04/12 12:24:50;;;;;;;9.88;4.62;;;;;;;16.83;43.72;97087.23;1846801;77;25721;-79
2021/04/12 12:27:35;;;;;;;11.38;4.75;;;;;;;16.79;44.02;97095.63;1852833;77;25757;-80
2021/04/12 12:30:23;;;;;;;10.25;5.08;;;;;;;16.66;43.98;97089.26;1851967;76;26287;-80
2021/04/12 12:33:10;;;;;;;11.60;5.17;;;;;;;16.28;44.38;97091.55;1784019;77;27707;-80
2021/04/12 12:35:58;;;;;;;7.08;4.72;;;;;;;16.11;45.05;97093.50;1852682;77;26258;-80
2021/04/12 12:38:57;;;;;;;9.60;4.97;;;;;;;16.02;45.41;97096.39;1817124;77;25780;-80
2021/04/12 12:41:32;;;;;;;10.40;5.53;;;;;;;16.03;45.74;97096.69;1852687;77;26084;-80
2021/04/12 12:44:07;;;;;;;8.20;4.58;;;;;;;16.08;45.81;97089.38;1852756;77;25706;-80
2021/04/12 12:46:39;;;;;;;10.23;5.50;;;;;;;16.14;45.66;97091.11;1852748;77;28388;-80
2021/04/12 12:49:22;;;;;;;;;;;;;;;16.24;45.75;97095.02;1855549;77;25666;-80
2021/04/12 12:52:03;;;;;;;13.43;6.08;;;;;;;16.29;45.93;97098.64;1852825;76;25685;-81
2021/04/12 12:54:42;;;;;;;10.93;5.72;;;;;;;16.34;45.92;97104.66;1852752;77;25637;-80
2021/04/12 12:57:33;;;;;;;16.67;5.90;;;;;;;16.37;46.03;97094.63;1850726;77;25959;-82
2021/04/12 13:00:21;;;;;;;10.10;6.12;;;;;;;16.27;46.18;97089.89;1843739;77;28387;-81
2021/04/12 13:02:50;;;;;;;11.83;6.20;;;;;;;16.28;46.26;97091.55;1840235;77;25772;-81
2021/04/12 13:05:31;;;;;;;11.78;5.28;;;;;;;16.33;46.35;97082.59;1843884;77;26242;-81
2021/04/12 13:08:12;;;;;;;7.28;4.70;;;;;;;16.40;46.44;97085.95;1843680;77;25710;-80
2021/04/12 13:10:44;;;;;;;8.40;4.50;;;;;;;16.51;46.27;97078.16;1843454;77;25744;-80
2021/04/12 13:13:25;;;;;;;11.15;5.03;;;;;;;16.61;46.11;97085.08;1843455;77;32015;-80
2021/04/12 13:16:13;;;;;;;6.77;4.60;;;;;;;16.64;45.78;97087.33;1843360;77;25641;-81
2021/04/12 13:18:45;;;;;;;7.75;4.53;;;;;;;16.59;45.81;97092.68;1842989;77;25637;-80
2021/04/12 13:21:18;;;;;;;8.23;4.30;;;;;;;16.60;45.66;97090.24;1841179;77;26077;-82
2021/04/12 13:23:53;;;;;;;10.58;4.85;;;;;;;16.67;45.76;97085.42;1843234;77;25773;-81
2021/04/12 13:26:35;;;;;;;11.73;4.53;;;;;;;16.79;45.71;97089.34;1843169;77;28425;-82
2021/04/12 13:29:28;;;;;;;11.00;4.85;;;;;;;16.84;45.71;97088.87;1843293;77;25788;-78
2021/04/12 13:32:04;;;;;;;11.20;4.80;;;;;;;16.95;45.72;97088.42;1843195;77;25619;-79
2021/04/12 13:34:43;;;;;;;10.25;4.75;;;;;;;17.04;45.62;97092.84;1842056;77;25706;-79
2021/04/12 13:37:18;;;;;;;7.72;5.12;;;;;;;17.15;45.45;97097.30;1843191;77;25674;-80
2021/04/12 13:39:54;;;;;;;8.45;4.58;;;;;;;17.24;45.48;97102.04;1843132;77;27478;-79
2021/04/12 13:42:27;;;;;;;9.78;4.42;;;;;;;17.25;45.57;97091.41;1842486;77;26146;-79
2021/04/12 13:44:57;;;;;;;;;;;;;;;17.45;45.75;97092.08;1845937;77;25752;-79
2021/04/12 13:50:34;;;;;;;11.33;4.87;;;;;;;17.89;45.35;97084.45;1886866;76;25576;-78
2021/04/12 13:53:18;;;;;;;9.85;5.30;;;;;;;18.20;45.48;97086.78;1857266;77;25740;-79
2021/04/12 13:56:06;;;;;;;6.35;3.58;;;;;;;18.56;45.10;97090.45;1824807;77;27499;-80
2021/04/12 13:58:42;;;;;;;6.05;4.25;;;;;;;18.79;44.07;97092.43;1857682;77;25681;-80